createdAt,value
2023-11-12T00:00:58.812Z,20.60
2023-11-12T00:04:07.095Z,19.70
2023-11-12T00:06:53.921Z,20.00
2023-11-12T00:09:41.437Z,20.00
2023-11-12T00:12:29.361Z,19.70
2023-11-12T00:15:16.197Z,19.70
2023-11-12T00:18:03.081Z,17.80
2023-11-12T00:20:51.962Z,18.50
2023-11-12T00:23:39.098Z,18.70
2023-11-12T00:26:25.932Z,19.60
2023-11-12T00:29:13.350Z,19.10
2023-11-12T00:32:01.239Z,19.30
2023-11-12T00:34:48.695Z,18.90
2023-11-12T00:37:35.770Z,18.70
2023-11-12T00:40:22.778Z,18.00
2023-11-12T00:43:09.782Z,16.20
2023-11-12T00:46:02.413Z,15.90
2023-11-12T00:48:49.044Z,16.80
2023-11-12T00:51:37.023Z,16.60
2023-11-12T00:54:24.219Z,16.40
2023-11-12T00:57:11.198Z,15.70
2023-11-12T00:59:57.817Z,15.30
2023-11-12T01:02:44.836Z,12.40
2023-11-12T01:05:32.090Z,12.20
2023-11-12T01:08:21.823Z,9.90
2023-11-12T01:11:09.640Z,9.70
2023-11-12T01:13:56.605Z,10.50
2023-11-12T01:16:43.351Z,10.00
2023-11-12T01:19:33.629Z,9.70
2023-11-12T01:22:20.810Z,7.30
2023-11-12T01:25:08.506Z,8.70
2023-11-12T01:27:55.779Z,9.00
2023-11-12T01:30:42.901Z,9.20
2023-11-12T01:33:29.983Z,8.10
2023-11-12T01:36:17.170Z,9.10
2023-11-12T01:39:09.254Z,9.60
2023-11-12T01:41:56.227Z,9.70
2023-11-12T01:44:45.127Z,8.60
2023-11-12T01:47:32.288Z,8.70
2023-11-12T01:50:20.489Z,9.20
2023-11-12T01:53:07.511Z,9.10
2023-11-12T01:55:56.877Z,8.10
2023-11-12T01:58:44.612Z,7.60
2023-11-12T02:01:31.795Z,7.60
2023-11-12T02:04:19.655Z,8.10
2023-11-12T02:07:06.740Z,8.50
2023-11-12T02:10:07.536Z,8.00
2023-11-12T02:12:54.377Z,10.00
2023-11-12T02:15:41.493Z,8.00
2023-11-12T02:18:28.297Z,14.70
2023-11-12T02:21:15.032Z,11.40
2023-11-12T02:24:01.987Z,8.00
2023-11-12T02:26:49.279Z,10.60
2023-11-12T02:29:36.558Z,8.30
2023-11-12T02:32:24.438Z,12.10
2023-11-12T02:35:11.679Z,8.30
2023-11-12T02:37:58.454Z,10.80
2023-11-12T02:40:47.713Z,7.20
2023-11-12T02:43:35.501Z,7.00
2023-11-12T02:46:25.304Z,6.10
2023-11-12T02:49:29.448Z,6.10
2023-11-12T02:52:16.637Z,5.90
2023-11-12T02:55:04.120Z,5.80
2023-11-12T02:57:50.906Z,5.50
2023-11-12T03:00:39.552Z,5.80
2023-11-12T03:03:28.956Z,5.90
2023-11-12T03:06:16.120Z,5.90
2023-11-12T03:09:05.284Z,5.30
2023-11-12T03:11:55.169Z,4.80
2023-11-12T03:14:46.313Z,4.90
2023-11-12T03:17:33.389Z,5.40
2023-11-12T03:20:21.151Z,5.10
2023-11-12T03:23:08.404Z,5.30
2023-11-12T03:25:55.242Z,4.80
2023-11-12T03:28:42.104Z,4.80
2023-11-12T03:31:28.834Z,5.30
2023-11-12T03:34:17.265Z,4.80
2023-11-12T03:37:04.768Z,4.10
2023-11-12T03:39:51.747Z,4.60
2023-11-12T03:42:38.558Z,4.10
2023-11-12T03:45:25.367Z,4.40
2023-11-12T03:48:13.106Z,4.20
2023-11-12T03:50:59.995Z,4.30
2023-11-12T03:53:46.706Z,4.50
2023-11-12T03:56:33.696Z,4.90
2023-11-12T03:59:20.747Z,3.80
2023-11-12T04:02:07.888Z,3.50
2023-11-12T04:04:55.268Z,3.50
2023-11-12T04:07:42.414Z,3.60
2023-11-12T04:10:29.494Z,3.50
2023-11-12T04:13:17.882Z,3.40
2023-11-12T04:16:10.079Z,3.90
2023-11-12T04:18:57.284Z,4.40
2023-11-12T04:21:47.715Z,3.90
2023-11-12T04:24:34.472Z,3.90
2023-11-12T04:27:21.650Z,4.20
2023-11-12T04:30:10.104Z,4.90
2023-11-12T04:32:56.966Z,4.40
2023-11-12T04:35:43.958Z,5.10
2023-11-12T04:38:30.691Z,4.60
2023-11-12T04:41:18.185Z,4.10
2023-11-12T04:44:06.455Z,5.00
2023-11-12T04:46:53.754Z,5.10
2023-11-12T04:49:40.554Z,5.40
2023-11-12T04:52:28.045Z,5.00
2023-11-12T04:55:14.810Z,5.10
2023-11-12T04:58:07.446Z,5.40
2023-11-12T05:00:54.482Z,5.50
2023-11-12T05:03:41.896Z,6.00
2023-11-12T05:06:31.065Z,6.10
2023-11-12T05:09:18.486Z,6.60
2023-11-12T05:12:05.825Z,6.70
2023-11-12T05:14:52.782Z,6.10
2023-11-12T05:17:39.978Z,6.80
2023-11-12T05:20:26.820Z,6.80
2023-11-12T05:23:13.834Z,7.20
2023-11-12T05:26:03.792Z,7.00
2023-11-12T05:28:50.990Z,6.80
2023-11-12T05:31:38.022Z,7.80
2023-11-12T05:34:25.467Z,6.80
2023-11-12T05:37:12.421Z,6.50
2023-11-12T05:39:59.333Z,6.70
2023-11-12T05:42:46.169Z,7.40
2023-11-12T05:45:33.530Z,7.40
2023-11-12T05:48:20.562Z,7.40
2023-11-12T05:51:07.318Z,6.90
2023-11-12T05:53:54.591Z,7.60
2023-11-12T05:56:41.666Z,8.00
2023-11-12T05:59:29.140Z,7.30
2023-11-12T06:02:15.770Z,6.40
2023-11-12T06:05:05.004Z,7.10
2023-11-12T06:07:52.010Z,7.20
2023-11-12T06:10:38.797Z,7.50
2023-11-12T06:13:25.908Z,7.80
2023-11-12T06:16:12.667Z,6.80
2023-11-12T06:19:00.060Z,7.80
2023-11-12T06:21:46.749Z,8.10
2023-11-12T06:24:33.597Z,8.20
2023-11-12T06:27:20.867Z,7.60
2023-11-12T06:30:11.815Z,8.10
2023-11-12T06:33:00.529Z,8.90
2023-11-12T06:35:47.752Z,10.00
2023-11-12T06:38:34.766Z,9.80
2023-11-12T06:41:21.881Z,10.60
2023-11-12T06:44:12.403Z,8.90
2023-11-12T06:46:59.702Z,9.20
2023-11-12T06:49:47.327Z,11.00
2023-11-12T06:52:34.351Z,8.20
2023-11-12T06:55:22.004Z,9.10
2023-11-12T06:58:09.295Z,9.80
2023-11-12T07:00:56.174Z,8.40
2023-11-12T07:03:43.117Z,9.40
2023-11-12T07:06:30.204Z,9.00
2023-11-12T07:09:18.162Z,8.70
2023-11-12T07:12:05.982Z,8.80
2023-11-12T07:14:52.803Z,9.30
2023-11-12T07:17:39.941Z,8.50
2023-11-12T07:20:33.481Z,8.10
2023-11-12T07:23:20.284Z,10.80
2023-11-12T07:26:07.473Z,9.00
2023-11-12T07:28:55.538Z,9.60
2023-11-12T07:31:48.805Z,9.30
2023-11-12T07:34:35.673Z,10.00
2023-11-12T07:37:22.454Z,9.20
2023-11-12T07:40:17.556Z,9.40
2023-11-12T07:43:04.651Z,8.10
2023-11-12T07:45:51.491Z,10.60
2023-11-12T07:48:38.376Z,8.10
2023-11-12T07:51:25.617Z,8.30
2023-11-12T07:54:12.207Z,12.00
2023-11-12T07:56:59.401Z,8.30
2023-11-12T07:59:46.565Z,8.30
2023-11-12T08:02:33.538Z,10.40
2023-11-12T08:05:22.039Z,8.50
2023-11-12T08:08:09.416Z,9.00
2023-11-12T08:11:01.240Z,7.30
2023-11-12T08:13:48.909Z,8.90
2023-11-12T08:16:36.382Z,9.80
2023-11-12T08:19:23.191Z,9.70
2023-11-12T08:22:10.373Z,8.40
2023-11-12T08:24:58.258Z,8.10
2023-11-12T08:27:45.082Z,7.90
2023-11-12T08:30:33.184Z,8.30
2023-11-12T08:33:20.676Z,7.30
2023-11-12T08:36:09.055Z,8.20
2023-11-12T08:38:56.101Z,9.20
2023-11-12T08:41:45.361Z,7.60
2023-11-12T08:44:32.501Z,6.90
2023-11-12T08:47:20.770Z,7.40
2023-11-12T08:50:08.594Z,6.70
2023-11-12T08:52:58.216Z,6.70
2023-11-12T08:55:44.936Z,6.30
2023-11-12T08:58:35.236Z,7.70
2023-11-12T09:01:23.172Z,6.50
2023-11-12T09:04:10.428Z,8.50
2023-11-12T09:06:57.834Z,5.90
2023-11-12T09:09:45.368Z,16.20
2023-11-12T09:12:32.697Z,5.60
2023-11-12T09:15:19.693Z,6.00
2023-11-12T09:18:07.180Z,11.70
2023-11-12T09:20:54.330Z,6.70
2023-11-12T09:23:41.725Z,6.50
2023-11-12T09:26:28.819Z,7.70
2023-11-12T09:29:19.388Z,7.80
2023-11-12T09:32:07.043Z,11.20
2023-11-12T09:34:54.180Z,7.70
2023-11-12T09:37:43.071Z,9.20
2023-11-12T09:40:32.573Z,9.20
2023-11-12T09:43:19.394Z,9.90
2023-11-12T09:46:09.850Z,14.10
2023-11-12T09:48:57.003Z,8.50
2023-11-12T09:51:44.306Z,8.20
2023-11-12T09:54:31.932Z,6.90
2023-11-12T09:57:19.813Z,7.10
2023-11-12T10:00:08.529Z,7.30
2023-11-12T10:02:58.789Z,7.80
2023-11-12T10:05:50.066Z,9.20
2023-11-12T10:08:37.072Z,6.40
2023-11-12T10:11:25.480Z,6.60
2023-11-12T10:14:18.327Z,8.00
2023-11-12T10:17:08.756Z,7.50
2023-11-12T10:19:57.568Z,6.30
2023-11-12T10:22:44.520Z,7.00
2023-11-12T10:25:45.396Z,9.40
2023-11-12T10:28:36.118Z,6.70
2023-11-12T10:31:39.381Z,6.60
2023-11-12T10:34:28.927Z,8.20
2023-11-12T10:37:16.046Z,8.00
2023-11-12T10:40:09.812Z,8.20
2023-11-12T10:43:11.011Z,8.40
2023-11-12T10:46:05.595Z,6.90
2023-11-12T10:48:55.790Z,6.80
2023-11-12T10:51:43.632Z,8.00
2023-11-12T10:54:34.240Z,6.90
2023-11-12T10:57:24.909Z,6.50
2023-11-12T11:00:12.897Z,6.60
2023-11-12T11:03:00.530Z,7.40
2023-11-12T11:05:48.184Z,8.00
2023-11-12T11:08:37.727Z,8.00
2023-11-12T11:11:25.250Z,7.20
2023-11-12T11:14:30.747Z,7.70
2023-11-12T11:17:38.076Z,9.10
2023-11-12T11:20:25.399Z,8.00
2023-11-12T11:23:53.607Z,8.90
2023-11-12T11:26:41.025Z,11.40
2023-11-12T11:29:29.360Z,10.90
2023-11-12T11:32:18.600Z,10.40
2023-11-12T11:35:19.151Z,14.50
2023-11-12T11:38:14.168Z,9.60
2023-11-12T11:41:01.525Z,8.50
2023-11-12T11:43:48.668Z,9.70
2023-11-12T11:47:06.787Z,9.10
2023-11-12T11:50:00.045Z,9.90
2023-11-12T11:52:52.812Z,9.80
2023-11-12T11:55:41.904Z,9.40
2023-11-12T11:58:31.309Z,11.80
2023-11-12T12:01:18.465Z,15.10
2023-11-12T12:04:07.496Z,8.90
2023-11-12T12:06:57.109Z,12.00
2023-11-12T12:09:44.271Z,13.00
2023-11-12T12:12:31.856Z,7.00
2023-11-12T12:15:19.044Z,6.80
2023-11-12T12:18:21.410Z,6.50
2023-11-12T12:21:08.477Z,6.10
2023-11-12T12:23:56.162Z,6.30
2023-11-12T12:26:44.285Z,7.10
2023-11-12T12:29:33.145Z,8.00
2023-11-12T12:32:23.688Z,8.40
2023-11-12T12:35:10.628Z,12.90
2023-11-12T12:38:08.548Z,11.20
2023-11-12T12:41:04.196Z,9.90
2023-11-12T12:43:57.585Z,9.90
2023-11-12T12:46:48.080Z,10.30
2023-11-12T12:49:35.714Z,8.80
2023-11-12T12:52:23.366Z,11.20
2023-11-12T12:55:11.877Z,9.40
2023-11-12T12:58:00.466Z,11.30
2023-11-12T13:00:50.009Z,11.90
2023-11-12T13:03:39.190Z,12.80
2023-11-12T13:06:27.428Z,16.60
2023-11-12T13:09:19.963Z,15.90
2023-11-12T13:12:08.954Z,15.40
2023-11-12T13:14:56.019Z,12.20
2023-11-12T13:17:43.215Z,9.00
2023-11-12T13:20:30.412Z,9.50
2023-11-12T13:23:20.671Z,8.50
2023-11-12T13:26:07.646Z,9.80
2023-11-12T13:28:55.127Z,9.10
2023-11-12T13:31:42.652Z,15.80
2023-11-12T13:34:29.746Z,8.40
2023-11-12T13:37:17.108Z,6.90
2023-11-12T13:40:06.799Z,7.40
2023-11-12T13:42:55.725Z,13.10
2023-11-12T13:45:44.522Z,12.00
2023-11-12T13:48:32.263Z,10.70
2023-11-12T13:51:21.257Z,7.70
2023-11-12T13:54:11.701Z,9.60
2023-11-12T13:57:00.834Z,10.80
2023-11-12T13:59:47.936Z,9.40
2023-11-12T14:02:34.945Z,10.60
2023-11-12T14:05:27.557Z,12.60
2023-11-12T14:08:14.641Z,18.20
2023-11-12T14:11:02.022Z,14.70
2023-11-12T14:13:49.218Z,14.10
2023-11-12T14:16:39.535Z,14.40
2023-11-12T14:19:27.304Z,21.90
2023-11-12T14:22:15.654Z,15.70
2023-11-12T14:25:04.650Z,12.00
2023-11-12T14:27:54.008Z,11.00
2023-11-12T14:30:41.860Z,14.00
2023-11-12T14:33:29.250Z,12.90
2023-11-12T14:36:16.217Z,15.60
2023-11-12T14:39:06.109Z,22.20
2023-11-12T14:41:56.221Z,22.80
2023-11-12T14:44:43.690Z,34.20
2023-11-12T14:47:31.793Z,33.20
2023-11-12T14:50:19.068Z,30.50
2023-11-12T14:53:06.576Z,32.60
2023-11-12T14:55:55.850Z,37.90
2023-11-12T14:58:42.681Z,41.10
2023-11-12T15:01:29.745Z,28.50
2023-11-12T15:04:17.060Z,28.30
2023-11-12T15:07:04.158Z,24.80
2023-11-12T15:09:51.770Z,20.50
2023-11-12T15:12:38.978Z,20.00
2023-11-12T15:15:26.777Z,28.20
2023-11-12T15:18:15.660Z,27.70
2023-11-12T15:21:07.716Z,29.30
2023-11-12T15:23:54.551Z,23.60
2023-11-12T15:26:43.018Z,29.80
2023-11-12T15:29:30.106Z,40.10
2023-11-12T15:32:17.778Z,35.10
2023-11-12T15:35:05.964Z,35.00
2023-11-12T15:37:52.753Z,32.70
2023-11-12T15:40:40.801Z,35.90
2023-11-12T15:43:27.951Z,31.80
2023-11-12T15:46:14.674Z,32.30
2023-11-12T15:49:01.476Z,27.60
2023-11-12T15:51:49.110Z,34.40
2023-11-12T15:54:35.866Z,21.40
2023-11-12T15:57:22.347Z,23.80
2023-11-12T16:00:15.555Z,19.40
2023-11-12T16:03:09.204Z,16.60
2023-11-12T16:06:06.745Z,15.50
2023-11-12T16:08:56.544Z,16.30
2023-11-12T16:11:45.113Z,11.40
2023-11-12T16:14:31.695Z,12.90
2023-11-12T16:17:18.782Z,13.60
2023-11-12T16:20:09.914Z,13.70
2023-11-12T16:22:57.813Z,19.20
2023-11-12T16:25:45.394Z,18.20
2023-11-12T16:28:33.449Z,16.40
2023-11-12T16:31:20.615Z,18.40
2023-11-12T16:34:07.527Z,17.20
2023-11-12T16:36:54.655Z,13.80
2023-11-12T16:39:46.275Z,19.80
2023-11-12T16:42:33.199Z,18.20
2023-11-12T16:45:20.080Z,15.60
2023-11-12T16:48:08.809Z,16.00
2023-11-12T16:50:55.691Z,13.30
2023-11-12T16:53:42.640Z,14.50
2023-11-12T16:56:29.433Z,15.60
2023-11-12T16:59:16.546Z,17.00
2023-11-12T17:02:03.656Z,13.50
2023-11-12T17:04:50.976Z,12.40
2023-11-12T17:07:37.946Z,13.00
2023-11-12T17:10:25.067Z,11.80
2023-11-12T17:13:13.246Z,11.90
2023-11-12T17:16:00.248Z,11.90
2023-11-12T17:18:47.204Z,10.60
2023-11-12T17:21:34.463Z,14.00
2023-11-12T17:24:24.719Z,13.90
2023-11-12T17:27:14.055Z,14.10
2023-11-12T17:30:01.849Z,14.30
2023-11-12T17:32:48.940Z,14.70
2023-11-12T17:35:37.312Z,15.60
2023-11-12T17:38:29.064Z,18.50
2023-11-12T17:41:16.366Z,18.30
2023-11-12T17:44:03.215Z,20.20
2023-11-12T17:46:50.506Z,19.00
2023-11-12T17:49:37.284Z,20.90
2023-11-12T17:52:28.410Z,21.20
2023-11-12T17:55:15.427Z,18.60
2023-11-12T17:58:02.280Z,20.50
2023-11-12T18:00:51.021Z,17.20
2023-11-12T18:03:39.560Z,17.60
2023-11-12T18:06:27.312Z,16.80
2023-11-12T18:09:16.708Z,15.70
2023-11-12T18:12:03.867Z,16.80
2023-11-12T18:14:50.655Z,16.30
2023-11-12T18:17:39.060Z,15.60
2023-11-12T18:20:25.903Z,12.30
2023-11-12T18:23:13.507Z,20.10
2023-11-12T18:26:03.013Z,20.40
2023-11-12T18:28:53.491Z,17.10
2023-11-12T18:31:41.343Z,17.40
2023-11-12T18:34:28.361Z,15.30
2023-11-12T18:37:15.740Z,14.60
2023-11-12T18:40:04.462Z,14.40
2023-11-12T18:42:53.509Z,13.80
2023-11-12T18:45:40.815Z,15.40
2023-11-12T18:48:27.704Z,15.10
2023-11-12T18:51:17.601Z,14.70
2023-11-12T18:54:04.406Z,15.10
2023-11-12T18:56:51.462Z,15.60
2023-11-12T18:59:39.048Z,16.50
2023-11-12T19:02:26.451Z,17.50
2023-11-12T19:05:13.873Z,19.80
2023-11-12T19:08:01.149Z,23.70
2023-11-12T19:10:49.825Z,22.50
2023-11-12T19:13:37.091Z,20.10
2023-11-12T19:16:23.643Z,21.40
2023-11-12T19:19:13.359Z,19.80
2023-11-12T19:22:01.228Z,21.00
2023-11-12T19:24:48.380Z,21.60
2023-11-12T19:27:40.190Z,21.20
2023-11-12T19:30:28.465Z,24.80
2023-11-12T19:33:15.367Z,22.40
2023-11-12T19:36:02.309Z,23.20
2023-11-12T19:38:49.600Z,23.40
2023-11-12T19:41:36.481Z,24.70
2023-11-12T19:44:26.366Z,23.70
2023-11-12T19:47:13.313Z,33.80
2023-11-12T19:50:00.744Z,28.60
2023-11-12T19:52:48.040Z,25.90
2023-11-12T19:55:35.321Z,25.50
2023-11-12T19:58:22.216Z,23.80
2023-11-12T20:01:09.323Z,22.50
2023-11-12T20:03:57.505Z,21.90
2023-11-12T20:06:44.524Z,22.70
2023-11-12T20:09:32.613Z,20.20
2023-11-12T20:12:19.349Z,19.50
2023-11-12T20:15:10.740Z,19.90
2023-11-12T20:17:57.635Z,20.70
2023-11-12T20:20:44.716Z,21.50
2023-11-12T20:23:33.009Z,23.20
2023-11-12T20:26:21.186Z,22.50
2023-11-12T20:29:08.186Z,22.90
2023-11-12T20:31:57.954Z,24.30
2023-11-12T20:34:46.009Z,27.20
2023-11-12T20:37:32.892Z,26.40
2023-11-12T20:40:21.025Z,27.40
2023-11-12T20:43:12.137Z,26.00
2023-11-12T20:45:59.430Z,24.80
2023-11-12T20:48:46.542Z,24.10
2023-11-12T20:51:33.328Z,23.30
2023-11-12T20:54:21.195Z,24.20
2023-11-12T20:57:08.026Z,23.60
2023-11-12T20:59:54.663Z,24.70
2023-11-12T21:02:44.460Z,24.80
2023-11-12T21:05:33.363Z,25.40
2023-11-12T21:08:20.274Z,26.10
2023-11-12T21:11:08.436Z,24.60
2023-11-12T21:13:58.323Z,24.40
2023-11-12T21:16:45.358Z,24.10
2023-11-12T21:19:34.675Z,24.80
2023-11-12T21:22:21.884Z,24.40
2023-11-12T21:25:11.114Z,24.30
2023-11-12T21:27:58.491Z,22.70
2023-11-12T21:30:46.396Z,23.60
2023-11-12T21:33:33.244Z,23.20
2023-11-12T21:36:20.242Z,24.00
2023-11-12T21:39:09.753Z,23.40
2023-11-12T21:41:58.259Z,24.00
2023-11-12T21:44:46.106Z,20.80
2023-11-12T21:47:33.101Z,21.30
2023-11-12T21:50:22.194Z,21.80
2023-11-12T21:53:10.714Z,20.00
2023-11-12T21:55:59.225Z,18.00
2023-11-12T21:58:46.870Z,18.80
2023-11-12T22:01:34.977Z,18.80
2023-11-12T22:04:22.973Z,20.30
2023-11-12T22:07:09.762Z,19.70
2023-11-12T22:09:56.722Z,19.20
2023-11-12T22:12:45.034Z,23.40
2023-11-12T22:15:31.889Z,21.40
2023-11-12T22:18:24.786Z,21.30
2023-11-12T22:21:12.564Z,20.50
2023-11-12T22:24:01.371Z,20.90
2023-11-12T22:26:48.552Z,24.10
2023-11-12T22:29:35.651Z,20.00
2023-11-12T22:32:22.456Z,23.30
2023-11-12T22:35:12.847Z,21.10
2023-11-12T22:37:59.599Z,19.50
2023-11-12T22:40:48.800Z,19.60
2023-11-12T22:43:36.115Z,19.10
2023-11-12T22:46:23.282Z,18.80
2023-11-12T22:49:11.094Z,20.30
2023-11-12T22:51:58.359Z,20.30
2023-11-12T22:54:45.262Z,17.30
2023-11-12T22:57:33.357Z,18.30
2023-11-12T23:00:42.930Z,19.00
2023-11-12T23:03:33.776Z,19.60
2023-11-12T23:06:22.085Z,20.30
2023-11-12T23:09:09.513Z,18.80
2023-11-12T23:12:00.483Z,18.10
2023-11-12T23:14:47.383Z,19.70
2023-11-12T23:17:35.170Z,19.00
2023-11-12T23:20:22.851Z,18.80
2023-11-12T23:23:10.020Z,22.00
2023-11-12T23:25:57.104Z,18.30
2023-11-12T23:28:44.189Z,20.70
2023-11-12T23:31:31.087Z,26.00
2023-11-12T23:34:19.083Z,23.90
2023-11-12T23:37:07.910Z,25.20
2023-11-12T23:39:57.053Z,25.60
2023-11-12T23:42:45.208Z,24.50
2023-11-12T23:45:32.053Z,23.00
2023-11-12T23:48:19.318Z,21.70
2023-11-12T23:51:06.043Z,24.30
2023-11-12T23:53:53.412Z,27.00
2023-11-12T23:56:40.277Z,25.40
2023-11-12T23:59:27.249Z,23.90
